Sport private pilot acrobatic tailwheel flight training san jose san francisco bay area california flight school
Book Online at PaperlessFBO

AeroDynamic Webcam

For latest news click here

AeroDynamic Aviation Web Cam
The camera is located on top of our hangar, looking approximately SSW, towards the runways. The picture updates every two minutes. If you can see the hills in the distance (Loma Prieta and Mt Umunhum) the visibility is over 10 miles, and if you can see the tops of the hills the ceilings are higher than 3000' (at least over there). But remember that a webcam is no substitute for a proper weather briefing, preferably from a live Flight Service briefer!

 


METAR = KRHV 240153Z 00000KT 10SM SCT200 15/04 A3028

STATION........ KRHV
OBSERVED....... Sun Nov 23, 20:53 EST
NOW............ Sun Nov 23, 21:17 EST
AGE............ 24 min ago
WIND........... calm
VISIBILITY..... 10 miles
CLOUDS......... scattered clouds
TEMP........... 59°F (15°C)
DEWPT.......... 39°F (4°C)
HUMIDITY....... 48%
BAROMETER...... 1025 hPa (30.28 in Hg)

 

Come and fly with us in the beautiful San Francisco Bay Area of California. Our flight school is located at Reid Hillview airport in San Jose (KRHV), at the south end of San Francisco Bay and we offer ground and flight training for sport pilot, private pilot, commercial pilot, instrument rating, CFI (certified flight instructor), tailwheel, acrobatics, and multi engine certificates and ratings.